Time;durP1;ratioP1;P1;durP2;ratioP2;P2;SDS_P1;SDS_P2;PMS_P1;PMS_P2;Temp;Humidity;BMP_temperature;BMP_pressure;BME280_temperature;BME280_humidity;BME280_pressure;Samples;Min_cycle;Max_cycle;Signal;HPM_P1;HPM_P2
2024/03/23 00:00:33;;;;;;;17.52;6.80;;;10.40;99.90;;;;;;2094912;28;20032;-71
2024/03/23 00:01:34;;;;;;;17.75;6.13;;;10.30;99.90;;;;;;2093995;28;20017;-71
2024/03/23 00:02:36;;;;;;;19.35;6.20;;;10.40;99.90;;;;;;2094608;28;20025;-71
2024/03/23 00:03:37;;;;;;;20.38;6.03;;;10.40;99.90;;;;;;2094669;28;20033;-70
2024/03/23 00:04:39;;;;;;;19.42;5.68;;;10.30;99.90;;;;;;2092778;28;20032;-71
2024/03/23 00:05:43;;;;;;;21.95;5.50;;;10.30;99.90;;;;;;2093769;28;20021;-70
2024/03/23 00:06:45;;;;;;;18.67;6.40;;;10.30;99.90;;;;;;2094999;28;20025;-71
2024/03/23 00:07:46;;;;;;;21.33;5.32;;;10.30;99.90;;;;;;2091915;28;20374;-71
2024/03/23 00:08:48;;;;;;;21.10;5.97;;;10.30;99.90;;;;;;2095725;28;20032;-68
2024/03/23 00:09:49;;;;;;;17.95;5.05;;;10.20;99.90;;;;;;2093499;28;20039;-71
2024/03/23 00:10:51;;;;;;;18.13;6.35;;;10.20;99.90;;;;;;2094262;28;20032;-70
2024/03/23 00:11:52;;;;;;;19.88;5.43;;;10.20;99.90;;;;;;2094069;28;20825;-71
2024/03/23 00:12:54;;;;;;;24.08;6.55;;;10.20;99.90;;;;;;2094906;28;20036;-71
2024/03/23 00:13:57;;;;;;;18.17;6.30;;;10.20;99.90;;;;;;2094409;28;20025;-71
2024/03/23 00:14:58;;;;;;;20.48;6.22;;;10.10;99.90;;;;;;2093646;28;20017;-70
2024/03/23 00:16:00;;;;;;;15.70;6.50;;;10.20;99.90;;;;;;2093405;28;20037;-70
2024/03/23 00:17:01;;;;;;;24.35;7.00;;;10.10;99.90;;;;;;2093846;28;20024;-70
2024/03/23 00:18:03;;;;;;;21.15;6.95;;;10.10;99.90;;;;;;2094762;28;20056;-71
2024/03/23 00:19:04;;;;;;;18.73;6.22;;;10.10;99.90;;;;;;2093344;28;20032;-71
2024/03/23 00:20:06;;;;;;;25.95;6.53;;;10.10;99.90;;;;;;2093769;28;20063;-70
2024/03/23 00:21:07;;;;;;;20.23;5.63;;;10.10;99.90;;;;;;2094870;28;20037;-71
2024/03/23 00:22:09;;;;;;;12.88;4.68;;;10.10;99.90;;;;;;2091247;28;20052;-70
2024/03/23 00:23:13;;;;;;;18.95;6.18;;;10.10;99.90;;;;;;2093552;28;20490;-70
2024/03/23 00:24:15;;;;;;;18.23;5.40;;;10.10;99.90;;;;;;2092841;28;20033;-70
2024/03/23 00:25:16;;;;;;;20.13;5.18;;;10.10;99.90;;;;;;2093905;28;20029;-71
2024/03/23 00:26:18;;;;;;;18.98;5.57;;;10.10;99.90;;;;;;2096311;28;20047;-70
2024/03/23 00:27:19;;;;;;;15.98;5.07;;;10.10;99.90;;;;;;2093442;28;20035;-71
2024/03/23 00:28:21;;;;;;;20.10;5.03;;;10.10;99.90;;;;;;2091675;28;20040;-71
2024/03/23 00:29:22;;;;;;;20.08;4.88;;;10.10;99.90;;;;;;2085168;28;20034;-71
2024/03/23 00:30:24;;;;;;;13.20;4.13;;;10.00;99.90;;;;;;2086518;28;20032;-71
2024/03/23 00:31:25;;;;;;;20.52;5.97;;;10.00;99.90;;;;;;2094338;28;20024;-70
2024/03/23 00:32:27;;;;;;;13.23;4.00;;;10.00;99.90;;;;;;2091851;28;20029;-70
2024/03/23 00:33:28;;;;;;;15.15;3.80;;;10.00;99.90;;;;;;2092349;28;20406;-70
2024/03/23 00:34:30;;;;;;;11.55;4.15;;;10.00;99.90;;;;;;2094539;28;20040;-71
2024/03/23 00:35:31;;;;;;;14.80;4.57;;;10.00;99.90;;;;;;2088694;28;20025;-70
2024/03/23 00:36:33;;;;;;;13.23;4.25;;;10.00;99.90;;;;;;2087034;28;20028;-71
2024/03/23 00:37:34;;;;;;;13.70;4.00;;;10.00;99.90;;;;;;2094321;28;20036;-70
2024/03/23 00:38:36;;;;;;;13.57;4.05;;;10.00;99.90;;;;;;2094125;28;20025;-70
2024/03/23 00:39:38;;;;;;;15.23;4.05;;;10.00;99.90;;;;;;2093829;28;20020;-70
2024/03/23 00:40:39;;;;;;;14.15;4.05;;;10.00;99.90;;;;;;2095344;28;20485;-70
2024/03/23 00:41:41;;;;;;;18.48;4.30;;;10.00;99.90;;;;;;2095472;28;20378;-71
2024/03/23 00:42:42;;;;;;;17.77;4.75;;;10.00;99.90;;;;;;2094475;28;20028;-71
2024/03/23 00:43:44;;;;;;;15.98;3.80;;;10.00;99.90;;;;;;2094329;28;20032;-70
2024/03/23 00:44:46;;;;;;;12.88;4.18;;;10.00;99.90;;;;;;2092722;28;20480;-70
2024/03/23 00:45:47;;;;;;;11.57;3.70;;;10.00;99.90;;;;;;2093778;28;20024;-71
2024/03/23 00:46:49;;;;;;;15.77;4.05;;;10.00;99.90;;;;;;2094330;28;20020;-71
2024/03/23 00:47:53;;;;;;;12.60;3.67;;;10.00;99.90;;;;;;2093352;28;20039;-71
2024/03/23 00:48:54;;;;;;;12.80;4.03;;;10.00;99.90;;;;;;2093951;28;20025;-70
2024/03/23 00:49:56;;;;;;;10.93;4.28;;;10.00;99.90;;;;;;2092471;28;20457;-69
2024/03/23 00:50:58;;;;;;;13.70;4.82;;;10.10;99.90;;;;;;2095190;28;20039;-70
2024/03/23 00:51:59;;;;;;;13.27;4.53;;;10.10;99.90;;;;;;2093259;28;20028;-70
2024/03/23 00:53:00;;;;;;;14.18;4.28;;;10.10;99.90;;;;;;2094128;28;20048;-71
2024/03/23 00:54:01;;;;;;;12.30;4.47;;;10.10;99.90;;;;;;2094866;28;20023;-70
2024/03/23 00:55:02;;;;;;;16.75;4.65;;;10.10;99.90;;;;;;2093666;28;20037;-71
2024/03/23 00:56:03;;;;;;;12.80;3.90;;;10.10;99.90;;;;;;2094367;28;20527;-70
2024/03/23 00:57:04;;;;;;;11.70;4.00;;;10.10;99.90;;;;;;2094787;28;20017;-72
2024/03/23 00:58:04;;;;;;;14.00;5.05;;;10.10;99.90;;;;;;2092730;28;20162;-70
2024/03/23 00:59:05;;;;;;;11.98;3.85;;;10.00;99.90;;;;;;2093645;28;20435;-71
2024/03/23 01:00:06;;;;;;;15.10;4.10;;;10.00;99.90;;;;;;2094339;28;20669;-70
2024/03/23 01:01:06;;;;;;;13.93;4.57;;;10.00;99.90;;;;;;2094318;28;20496;-71
2024/03/23 01:02:07;;;;;;;16.38;4.85;;;10.00;99.90;;;;;;2093731;28;20400;-70
2024/03/23 01:03:07;;;;;;;12.30;4.18;;;10.00;99.90;;;;;;2094032;28;20032;-71
2024/03/23 01:04:08;;;;;;;14.68;4.88;;;10.00;99.90;;;;;;2095905;28;20066;-70
2024/03/23 01:05:09;;;;;;;14.32;5.00;;;10.00;99.90;;;;;;2092201;28;20036;-71
2024/03/23 01:06:09;;;;;;;11.38;3.83;;;10.00;99.90;;;;;;2094663;28;20028;-68
2024/03/23 01:07:10;;;;;;;12.65;4.18;;;10.00;99.90;;;;;;2092931;28;20083;-71
2024/03/23 01:08:10;;;;;;;15.70;4.43;;;10.00;99.90;;;;;;2093369;28;20381;-70
2024/03/23 01:09:11;;;;;;;12.30;3.75;;;10.00;99.90;;;;;;2093143;28;20060;-70
2024/03/23 01:10:11;;;;;;;15.27;4.22;;;10.00;99.90;;;;;;2094288;28;20025;-71
2024/03/23 01:11:12;;;;;;;12.88;4.25;;;10.10;99.90;;;;;;2093493;28;20381;-70
2024/03/23 01:12:12;;;;;;;16.42;4.20;;;10.00;99.90;;;;;;2092713;28;20111;-70
2024/03/23 01:13:13;;;;;;;16.55;4.35;;;10.00;99.90;;;;;;2094086;28;20021;-70
2024/03/23 01:14:13;;;;;;;11.93;3.60;;;10.00;99.90;;;;;;2094072;28;20025;-70
2024/03/23 01:15:14;;;;;;;18.25;5.03;;;10.00;99.90;;;;;;2093908;28;20033;-70
2024/03/23 01:16:14;;;;;;;19.05;4.85;;;10.00;99.90;;;;;;2093451;28;20392;-71
2024/03/23 01:17:15;;;;;;;16.17;4.80;;;10.00;99.90;;;;;;2095331;28;20107;-71
2024/03/23 01:18:15;;;;;;;14.07;4.18;;;10.00;99.90;;;;;;2092485;28;20488;-70
2024/03/23 01:19:16;;;;;;;16.23;4.63;;;10.00;99.90;;;;;;2085783;28;20464;-71
2024/03/23 01:20:17;;;;;;;16.58;4.70;;;10.00;99.90;;;;;;2079965;28;20522;-70
2024/03/23 01:21:17;;;;;;;14.52;4.88;;;10.00;99.90;;;;;;2086218;28;20603;-70
2024/03/23 01:22:18;;;;;;;14.93;4.78;;;10.00;99.90;;;;;;2085552;28;20022;-71
2024/03/23 01:23:18;;;;;;;14.48;4.45;;;10.00;99.90;;;;;;2085709;28;20834;-71
2024/03/23 01:24:19;;;;;;;12.65;4.38;;;10.00;99.90;;;;;;2086740;28;20025;-71
2024/03/23 01:25:19;;;;;;;14.30;4.20;;;10.00;99.90;;;;;;2087597;28;20069;-71
2024/03/23 01:26:20;;;;;;;13.27;4.03;;;10.00;99.90;;;;;;2084850;28;20040;-70
2024/03/23 01:27:21;;;;;;;15.02;4.65;;;10.00;99.90;;;;;;2079521;28;20552;-71
2024/03/23 01:28:21;;;;;;;12.55;3.97;;;10.00;99.90;;;;;;2077838;28;20043;-71
2024/03/23 01:29:22;;;;;;;10.60;3.63;;;10.00;99.90;;;;;;2084009;28;20069;-69
2024/03/23 01:30:22;;;;;;;12.02;3.50;;;10.10;99.90;;;;;;2086277;28;20030;-71
2024/03/23 01:31:23;;;;;;;8.38;3.05;;;10.10;99.90;;;;;;2085615;28;20059;-72
2024/03/23 01:32:23;;;;;;;10.57;3.92;;;10.00;99.90;;;;;;2085972;28;20072;-70
2024/03/23 01:33:24;;;;;;;11.95;4.28;;;10.10;99.90;;;;;;2085537;28;20099;-71
2024/03/23 01:34:25;;;;;;;13.55;4.15;;;10.10;99.90;;;;;;2086229;28;20071;-71
2024/03/23 01:35:25;;;;;;;9.93;3.83;;;10.10;99.90;;;;;;2077300;28;20028;-71
2024/03/23 01:36:26;;;;;;;13.13;3.80;;;10.10;99.90;;;;;;2075589;28;20025;-71
2024/03/23 01:37:26;;;;;;;16.77;4.43;;;10.10;99.90;;;;;;2085671;28;20457;-70
2024/03/23 01:38:27;;;;;;;9.93;3.50;;;10.00;99.90;;;;;;2084779;28;20163;-70
2024/03/23 01:39:27;;;;;;;10.40;3.45;;;10.10;99.90;;;;;;2085892;28;20088;-70
2024/03/23 01:40:31;;;;;;;12.63;4.03;;;10.00;99.90;;;;;;2086460;28;20029;-70
2024/03/23 01:41:31;;;;;;;9.13;3.13;;;10.00;99.90;;;;;;2078003;28;20537;-70
2024/03/23 01:42:32;;;;;;;10.32;3.20;;;10.00;99.90;;;;;;2078046;28;21334;-70
2024/03/23 01:43:32;;;;;;;10.02;3.47;;;10.00;99.90;;;;;;2085109;28;20029;-70
2024/03/23 01:44:33;;;;;;;7.30;2.80;;;10.00;99.90;;;;;;2084352;28;20026;-71
2024/03/23 01:45:35;;;;;;;12.05;3.78;;;10.00;99.90;;;;;;2084682;28;20038;-71
2024/03/23 01:46:37;;;;;;;12.95;3.58;;;10.00;99.90;;;;;;2075849;28;20108;-70
2024/03/23 01:47:38;;;;;;;8.77;2.90;;;10.00;99.90;;;;;;2086711;28;20029;-71
2024/03/23 01:48:38;;;;;;;9.60;2.80;;;10.00;99.90;;;;;;2084658;28;20040;-70
2024/03/23 01:49:39;;;;;;;12.20;3.47;;;10.00;99.90;;;;;;2084523;28;20021;-70
2024/03/23 01:50:39;;;;;;;9.70;3.53;;;10.00;99.90;;;;;;2079078;28;20017;-70
2024/03/23 01:51:41;;;;;;;12.93;3.55;;;10.00;99.90;;;;;;2078560;28;20025;-70
2024/03/23 01:52:42;;;;;;;13.15;3.55;;;10.00;99.90;;;;;;2086398;28;20026;-70
2024/03/23 01:53:42;;;;;;;9.32;2.85;;;10.00;99.90;;;;;;2083815;28;20083;-70
2024/03/23 01:54:44;;;;;;;7.25;2.92;;;9.90;99.90;;;;;;2084029;28;20146;-71
2024/03/23 01:55:44;;;;;;;9.32;3.47;;;9.90;99.90;;;;;;2085631;28;20021;-70
2024/03/23 01:56:45;;;;;;;9.43;3.30;;;9.90;99.90;;;;;;2085038;28;20049;-70
2024/03/23 01:57:46;;;;;;;9.70;3.17;;;9.90;99.90;;;;;;2082622;28;20057;-70
2024/03/23 01:58:47;;;;;;;12.45;3.67;;;9.90;99.90;;;;;;2084878;28;20067;-71
2024/03/23 01:59:48;;;;;;;10.05;3.17;;;9.90;99.90;;;;;;2085642;28;20055;-71
2024/03/23 02:00:49;;;;;;;7.47;2.55;;;9.90;99.90;;;;;;2085439;28;20025;-70
2024/03/23 02:01:49;;;;;;;7.82;3.10;;;9.90;99.90;;;;;;2084293;28;20030;-71
2024/03/23 02:02:50;;;;;;;9.15;3.70;;;9.90;99.90;;;;;;2084124;28;20076;-70
2024/03/23 02:03:50;;;;;;;8.32;3.13;;;9.90;99.90;;;;;;2085344;28;20111;-70
2024/03/23 02:04:51;;;;;;;11.45;3.70;;;9.90;99.90;;;;;;2085921;28;20505;-71
2024/03/23 02:05:53;;;;;;;10.70;3.38;;;9.90;99.90;;;;;;2085843;28;20048;-71
2024/03/23 02:06:54;;;;;;;9.20;3.28;;;9.90;99.90;;;;;;2085966;28;20021;-70
2024/03/23 02:07:54;;;;;;;12.32;3.78;;;9.90;99.90;;;;;;2084593;28;20021;-70
2024/03/23 02:08:55;;;;;;;8.98;3.00;;;9.90;99.90;;;;;;2086325;28;20554;-70
2024/03/23 02:09:56;;;;;;;11.15;3.47;;;9.90;99.90;;;;;;2084960;28;20206;-71
2024/03/23 02:10:58;;;;;;;9.57;3.53;;;9.90;99.90;;;;;;2087232;28;20474;-71
2024/03/23 02:12:01;;;;;;;14.15;3.20;;;9.90;99.90;;;;;;2085136;28;20025;-70
2024/03/23 02:13:02;;;;;;;7.32;2.80;;;9.90;99.90;;;;;;2086814;28;20021;-71
2024/03/23 02:14:02;;;;;;;9.55;3.45;;;9.90;99.90;;;;;;2086966;28;20036;-70
2024/03/23 02:15:06;;;;;;;11.45;3.40;;;9.90;99.90;;;;;;2088312;28;20159;-71
2024/03/23 02:16:07;;;;;;;10.40;3.20;;;9.90;99.90;;;;;;2087308;28;20017;-71
2024/03/23 02:17:08;;;;;;;12.43;4.20;;;9.90;99.90;;;;;;2085282;28;20095;-71
2024/03/23 02:18:09;;;;;;;12.93;3.67;;;9.90;99.90;;;;;;2086630;28;20021;-71
2024/03/23 02:19:09;;;;;;;9.57;3.20;;;9.90;99.90;;;;;;2088001;28;20029;-70
2024/03/23 02:20:12;;;;;;;8.00;2.90;;;9.90;99.90;;;;;;2094220;28;20044;-70
2024/03/23 02:21:12;;;;;;;9.25;3.28;;;9.90;99.90;;;;;;2089816;28;20520;-71
2024/03/23 02:22:13;;;;;;;9.55;3.13;;;9.90;99.90;;;;;;2089130;28;20783;-71
2024/03/23 02:23:17;;;;;;;8.88;3.03;;;9.90;99.90;;;;;;2095803;28;20081;-71
2024/03/23 02:24:18;;;;;;;5.82;2.70;;;9.90;99.90;;;;;;2094229;28;20048;-71
2024/03/23 02:25:18;;;;;;;9.00;3.05;;;9.90;99.90;;;;;;2095580;28;20033;-70
2024/03/23 02:26:19;;;;;;;12.15;3.80;;;9.90;99.90;;;;;;2095187;28;20078;-70
2024/03/23 02:27:19;;;;;;;13.98;3.72;;;9.90;99.90;;;;;;2094670;28;20113;-71
2024/03/23 02:28:22;;;;;;;10.88;3.35;;;9.90;99.90;;;;;;2094627;28;20028;-70
2024/03/23 02:29:22;;;;;;;7.60;3.13;;;9.90;99.90;;;;;;2094384;28;20034;-71
2024/03/23 02:30:23;;;;;;;11.18;3.50;;;9.90;99.90;;;;;;2095794;28;20021;-70
2024/03/23 02:31:23;;;;;;;11.38;2.80;;;9.90;99.90;;;;;;2095935;28;20391;-71
2024/03/23 02:32:24;;;;;;;9.38;3.72;;;9.90;99.90;;;;;;2094886;28;20025;-71
2024/03/23 02:33:24;;;;;;;9.25;3.90;;;9.90;99.90;;;;;;2096020;28;20025;-70
2024/03/23 02:34:25;;;;;;;10.43;2.97;;;9.90;99.90;;;;;;2093828;28;20028;-71
2024/03/23 02:35:26;;;;;;;10.32;3.08;;;9.90;99.90;;;;;;2095461;28;20469;-71
2024/03/23 02:36:26;;;;;;;12.45;3.65;;;9.90;99.90;;;;;;2095054;28;20024;-70
2024/03/23 02:37:27;;;;;;;8.98;2.90;;;9.90;99.90;;;;;;2096739;28;20024;-70
2024/03/23 02:38:27;;;;;;;8.65;2.90;;;9.90;99.90;;;;;;2095029;28;20032;-71
2024/03/23 02:39:28;;;;;;;11.27;3.75;;;9.90;99.90;;;;;;2096684;28;20029;-71
2024/03/23 02:40:29;;;;;;;10.35;3.30;;;9.90;99.90;;;;;;2095692;28;20104;-71
2024/03/23 02:41:29;;;;;;;6.95;3.13;;;9.90;99.90;;;;;;2095713;28;20028;-71
2024/03/23 02:42:30;;;;;;;8.05;2.88;;;9.90;99.90;;;;;;2095016;28;20521;-70
2024/03/23 02:43:30;;;;;;;9.52;2.58;;;9.90;99.90;;;;;;2089713;28;20044;-71
2024/03/23 02:44:31;;;;;;;11.30;3.33;;;9.90;99.90;;;;;;2088218;28;20073;-71
2024/03/23 02:45:31;;;;;;;7.35;3.55;;;9.90;99.90;;;;;;2095454;28;20431;-70
2024/03/23 02:46:32;;;;;;;7.97;2.90;;;9.80;99.90;;;;;;2094734;28;20043;-70
2024/03/23 02:47:32;;;;;;;8.88;2.90;;;9.80;99.90;;;;;;2095776;28;20032;-70
2024/03/23 02:48:33;;;;;;;9.40;2.72;;;9.90;99.90;;;;;;2093436;28;20040;-71
2024/03/23 02:49:33;;;;;;;8.80;2.55;;;9.80;99.90;;;;;;2095745;28;20104;-70
2024/03/23 02:50:34;;;;;;;7.07;3.28;;;9.80;99.90;;;;;;2096441;28;20028;-70
2024/03/23 02:51:35;;;;;;;12.55;3.97;;;9.80;99.90;;;;;;2096822;28;20078;-70
2024/03/23 02:52:36;;;;;;;6.72;2.65;;;9.80;99.90;;;;;;2094402;28;20056;-71
2024/03/23 02:53:37;;;;;;;13.35;4.07;;;9.80;99.90;;;;;;2095493;28;20031;-71
2024/03/23 02:54:37;;;;;;;11.45;3.47;;;9.80;99.90;;;;;;2094269;28;20028;-71
2024/03/23 02:55:38;;;;;;;9.02;3.05;;;9.80;99.90;;;;;;2095112;28;20151;-70
2024/03/23 02:56:38;;;;;;;10.48;2.83;;;9.80;99.90;;;;;;2094691;28;20171;-70
2024/03/23 02:57:39;;;;;;;8.27;2.60;;;9.80;99.90;;;;;;2093026;28;20025;-71
2024/03/23 02:58:39;;;;;;;10.18;3.25;;;9.80;99.90;;;;;;2097275;28;20054;-71
2024/03/23 02:59:40;;;;;;;8.98;2.83;;;9.80;99.90;;;;;;2095418;28;20479;-71
2024/03/23 03:00:41;;;;;;;7.47;2.78;;;9.80;99.90;;;;;;2086927;28;20028;-69
2024/03/23 03:01:41;;;;;;;14.80;4.40;;;9.80;99.90;;;;;;2086546;28;20497;-70
2024/03/23 03:02:42;;;;;;;8.60;2.78;;;9.80;99.90;;;;;;2095738;28;20036;-70
2024/03/23 03:03:42;;;;;;;10.48;3.10;;;9.80;99.90;;;;;;2095653;28;20574;-70
2024/03/23 03:04:43;;;;;;;8.20;3.15;;;9.80;99.90;;;;;;2094480;28;20150;-70
2024/03/23 03:05:43;;;;;;;8.38;3.13;;;9.70;99.90;;;;;;2095121;28;20400;-71
2024/03/23 03:06:47;;;;;;;8.75;3.05;;;9.80;99.90;;;;;;2093746;28;20032;-71
2024/03/23 03:07:47;;;;;;;8.45;3.22;;;9.70;99.90;;;;;;2088687;28;20051;-70
2024/03/23 03:08:48;;;;;;;10.43;4.03;;;9.70;99.90;;;;;;2086819;28;20118;-71
2024/03/23 03:09:48;;;;;;;10.85;3.40;;;9.70;99.90;;;;;;2095188;28;20021;-71
2024/03/23 03:10:49;;;;;;;8.32;2.92;;;9.70;99.90;;;;;;2095068;28;20043;-70
2024/03/23 03:11:49;;;;;;;7.55;3.63;;;9.70;99.90;;;;;;2088910;28;20028;-71
2024/03/23 03:12:50;;;;;;;9.55;3.65;;;9.70;99.90;;;;;;2087699;28;20856;-70
2024/03/23 03:13:50;;;;;;;9.18;3.42;;;9.70;99.90;;;;;;2095586;28;20103;-70
2024/03/23 03:14:51;;;;;;;8.60;2.97;;;9.70;99.90;;;;;;2093218;28;20424;-70
2024/03/23 03:15:53;;;;;;;13.48;3.80;;;9.70;99.90;;;;;;2094797;28;20021;-70
2024/03/23 03:16:53;;;;;;;8.52;3.22;;;9.70;99.90;;;;;;2095674;28;20017;-71
2024/03/23 03:17:54;;;;;;;10.32;2.72;;;9.70;99.90;;;;;;2095040;28;20025;-71
2024/03/23 03:18:54;;;;;;;10.35;3.53;;;9.70;99.90;;;;;;2093818;28;20912;-66
2024/03/23 03:19:55;;;;;;;11.82;3.45;;;9.70;99.90;;;;;;2077490;28;20061;-66
2024/03/23 03:20:56;;;;;;;11.38;4.10;;;9.60;99.90;;;;;;2078152;28;20061;-65
2024/03/23 03:21:57;;;;;;;12.20;4.05;;;9.60;99.90;;;;;;2088784;28;20032;-66
2024/03/23 03:22:58;;;;;;;11.50;4.05;;;9.60;99.90;;;;;;2086174;28;20068;-65
2024/03/23 03:23:58;;;;;;;11.68;3.95;;;9.60;99.90;;;;;;2085246;28;20598;-65
2024/03/23 03:25:00;;;;;;;9.70;3.15;;;9.60;99.90;;;;;;2082227;28;20033;-66
2024/03/23 03:26:03;;;;;;;10.13;3.97;;;9.60;99.90;;;;;;2086850;28;20485;-65
2024/03/23 03:27:04;;;;;;;15.93;4.53;;;9.60;99.90;;;;;;2082418;28;20029;-65
2024/03/23 03:28:05;;;;;;;9.38;3.80;;;9.60;99.90;;;;;;2081977;28;20026;-65
2024/03/23 03:29:05;;;;;;;12.43;4.40;;;9.60;99.90;;;;;;2085935;28;20047;-66
2024/03/23 03:30:09;;;;;;;15.43;4.78;;;9.60;99.90;;;;;;2087033;28;20040;-65
2024/03/23 03:31:10;;;;;;;10.25;3.80;;;9.50;99.90;;;;;;2086305;28;20029;-65
2024/03/23 03:32:11;;;;;;;10.75;3.90;;;9.50;99.90;;;;;;2082658;28;20144;-66
2024/03/23 03:33:12;;;;;;;11.40;3.60;;;9.50;99.90;;;;;;2082492;28;20029;-65
2024/03/23 03:34:12;;;;;;;10.25;3.95;;;9.50;99.90;;;;;;2087460;28;20031;-65
2024/03/23 03:35:13;;;;;;;7.95;3.55;;;9.50;99.90;;;;;;2086320;28;20565;-66
2024/03/23 03:36:13;;;;;;;11.93;3.65;;;9.50;99.90;;;;;;2087309;28;20053;-66
2024/03/23 03:37:14;;;;;;;13.30;4.28;;;9.40;99.90;;;;;;2085622;28;20113;-66
2024/03/23 03:38:14;;;;;;;11.57;4.63;;;9.40;99.90;;;;;;2083032;28;20052;-65
2024/03/23 03:39:15;;;;;;;10.57;4.13;;;9.40;99.90;;;;;;2082416;28;20481;-65
2024/03/23 03:40:16;;;;;;;5.95;3.53;;;9.40;99.90;;;;;;2082734;28;20053;-65
2024/03/23 03:41:17;;;;;;;13.48;4.22;;;9.40;99.90;;;;;;2087209;28;20036;-66
2024/03/23 03:42:17;;;;;;;10.63;4.45;;;9.40;99.90;;;;;;2086042;28;20036;-66
2024/03/23 03:43:18;;;;;;;10.52;3.88;;;9.40;99.90;;;;;;2084722;28;20032;-65
2024/03/23 03:44:19;;;;;;;9.75;4.03;;;9.40;99.90;;;;;;2080897;28;20092;-65
2024/03/23 03:45:19;;;;;;;11.73;3.90;;;9.40;99.90;;;;;;2079567;28;20057;-66
2024/03/23 03:46:20;;;;;;;11.77;4.20;;;9.40;99.90;;;;;;2079790;28;20033;-65
2024/03/23 03:47:20;;;;;;;10.70;3.67;;;9.40;99.90;;;;;;2079021;28;20025;-65
2024/03/23 03:48:21;;;;;;;8.55;3.63;;;9.40;99.90;;;;;;2085051;28;20405;-65
2024/03/23 03:49:24;;;;;;;8.23;4.40;;;9.40;99.90;;;;;;2086777;28;20057;-65
2024/03/23 03:50:24;;;;;;;14.23;6.55;;;9.40;99.90;;;;;;2085001;28;20393;-66
2024/03/23 03:51:25;;;;;;;15.13;6.32;;;9.40;99.90;;;;;;2080948;28;20052;-67
2024/03/23 03:52:25;;;;;;;15.25;6.75;;;9.40;99.90;;;;;;2087816;28;20051;-66
2024/03/23 03:53:26;;;;;;;13.80;5.85;;;9.40;99.90;;;;;;2084467;28;20122;-66
2024/03/23 03:54:26;;;;;;;11.35;5.13;;;9.40;99.90;;;;;;2083043;28;20036;-65
2024/03/23 03:55:27;;;;;;;18.92;5.47;;;9.40;99.90;;;;;;2085564;28;20037;-67
2024/03/23 03:56:28;;;;;;;16.83;5.30;;;9.40;99.90;;;;;;2086860;28;20537;-65
2024/03/23 03:57:29;;;;;;;10.90;3.45;;;9.50;99.90;;;;;;2085833;28;20025;-65
2024/03/23 03:58:29;;;;;;;12.35;3.33;;;9.40;99.90;;;;;;2085970;28;20032;-65
2024/03/23 03:59:30;;;;;;;10.27;3.65;;;9.40;99.90;;;;;;2086568;28;20416;-65
2024/03/23 04:00:30;;;;;;;6.45;2.80;;;9.40;99.90;;;;;;2085345;28;20037;-65
2024/03/23 04:01:31;;;;;;;9.63;3.00;;;9.40;99.90;;;;;;2085651;28;20466;-65
2024/03/23 04:02:31;;;;;;;10.23;3.38;;;9.40;99.90;;;;;;2084873;28;20021;-65
2024/03/23 04:03:32;;;;;;;12.07;3.05;;;9.40;99.90;;;;;;2086595;28;20044;-65
2024/03/23 04:04:33;;;;;;;11.60;3.35;;;9.30;99.90;;;;;;2080491;28;20036;-66
2024/03/23 04:05:33;;;;;;;10.10;2.67;;;9.40;99.90;;;;;;2087311;28;20090;-65
2024/03/23 04:06:34;;;;;;;8.60;3.08;;;9.40;99.90;;;;;;2084552;28;20082;-65
2024/03/23 04:07:34;;;;;;;7.90;2.97;;;9.30;99.90;;;;;;2087385;28;20030;-66
2024/03/23 04:08:35;;;;;;;11.40;3.17;;;9.30;99.90;;;;;;2087417;28;20461;-65
2024/03/23 04:09:36;;;;;;;9.45;3.65;;;9.30;99.90;;;;;;2079141;28;20022;-66
2024/03/23 04:10:36;;;;;;;8.93;3.40;;;9.30;99.90;;;;;;2080113;28;20438;-65
2024/03/23 04:11:37;;;;;;;8.40;3.40;;;9.30;99.90;;;;;;2079922;28;20025;-65
2024/03/23 04:12:38;;;;;;;8.98;3.20;;;9.30;99.90;;;;;;2080413;28;20017;-66
2024/03/23 04:13:41;;;;;;;8.32;3.97;;;9.30;99.90;;;;;;2084866;28;20021;-65
2024/03/23 04:14:41;;;;;;;9.52;3.30;;;9.30;99.90;;;;;;2081484;28;20086;-65
2024/03/23 04:15:42;;;;;;;7.38;2.88;;;9.30;99.90;;;;;;2086647;28;20025;-65
2024/03/23 04:16:43;;;;;;;11.38;3.42;;;9.30;99.90;;;;;;2086864;28;20509;-65
2024/03/23 04:17:43;;;;;;;9.82;3.22;;;9.30;99.90;;;;;;2086988;28;20712;-65
2024/03/23 04:18:45;;;;;;;9.32;3.35;;;9.30;99.90;;;;;;2087635;28;20075;-65
2024/03/23 04:19:46;;;;;;;10.70;3.25;;;9.30;99.90;;;;;;2091047;28;20327;-66
2024/03/23 04:20:46;;;;;;;11.65;3.67;;;9.30;99.90;;;;;;2096490;28;20094;-65
2024/03/23 04:21:47;;;;;;;11.27;3.53;;;9.30;99.90;;;;;;2092514;28;20033;-66
2024/03/23 04:22:47;;;;;;;8.15;3.20;;;9.30;99.90;;;;;;2093675;28;20781;-66
2024/03/23 04:23:48;;;;;;;11.95;3.97;;;9.30;99.90;;;;;;2094557;28;20024;-65
2024/03/23 04:24:48;;;;;;;12.73;4.07;;;9.30;99.90;;;;;;2094062;28;20036;-65
2024/03/23 04:25:49;;;;;;;8.70;3.28;;;9.30;99.90;;;;;;2094153;28;20043;-66
2024/03/23 04:26:50;;;;;;;12.07;3.85;;;9.30;99.90;;;;;;2095687;28;20024;-65
2024/03/23 04:27:51;;;;;;;13.27;3.80;;;9.20;99.90;;;;;;2094087;28;20114;-66
2024/03/23 04:28:54;;;;;;;9.95;3.28;;;9.20;99.90;;;;;;2094413;28;20013;-66
2024/03/23 04:29:55;;;;;;;10.38;3.70;;;9.20;99.90;;;;;;2094761;28;20071;-65
2024/03/23 04:30:55;;;;;;;9.38;3.53;;;9.20;99.90;;;;;;2095567;28;20040;-67
2024/03/23 04:31:56;;;;;;;11.30;3.38;;;9.20;99.90;;;;;;2094851;28;20048;-66
2024/03/23 04:32:58;;;;;;;9.70;3.75;;;9.20;99.90;;;;;;2094818;28;20051;-65
2024/03/23 04:33:58;;;;;;;10.27;3.60;;;9.20;99.90;;;;;;2092019;28;20086;-66
2024/03/23 04:34:59;;;;;;;9.75;3.65;;;9.20;99.90;;;;;;2094222;28;20078;-67
2024/03/23 04:36:02;;;;;;;10.27;3.47;;;9.20;99.90;;;;;;2094816;28;20463;-66
2024/03/23 04:37:04;;;;;;;9.48;3.00;;;9.20;99.90;;;;;;2093084;28;20043;-66
2024/03/23 04:38:05;;;;;;;10.18;3.67;;;9.20;99.90;;;;;;2094889;28;20142;-66
2024/03/23 04:39:08;;;;;;;7.40;3.50;;;9.20;99.90;;;;;;2093667;28;20047;-66
2024/03/23 04:40:11;;;;;;;12.50;3.63;;;9.10;99.90;;;;;;2092487;28;20578;-65
2024/03/23 04:41:11;;;;;;;12.20;3.92;;;9.20;99.90;;;;;;2095887;28;20068;-66
2024/03/23 04:42:15;;;;;;;12.95;3.88;;;9.20;99.90;;;;;;2094966;28;20043;-66
2024/03/23 04:43:15;;;;;;;8.02;3.38;;;9.20;99.90;;;;;;2093554;28;20043;-65
2024/03/23 04:44:16;;;;;;;12.52;4.10;;;9.20;99.90;;;;;;2093239;28;20484;-65
2024/03/23 04:45:16;;;;;;;11.10;3.95;;;9.20;99.90;;;;;;2094747;28;20469;-66
2024/03/23 04:46:17;;;;;;;14.50;3.83;;;9.10;99.90;;;;;;2082507;28;20021;-65
2024/03/23 04:47:18;;;;;;;11.23;4.22;;;9.10;99.90;;;;;;2087829;28;20489;-65
2024/03/23 04:48:22;;;;;;;13.88;3.35;;;9.10;99.90;;;;;;2094193;28;20025;-66
2024/03/23 04:49:22;;;;;;;12.15;3.80;;;9.10;99.90;;;;;;2094824;28;20035;-66
2024/03/23 04:50:23;;;;;;;9.00;3.00;;;9.10;99.90;;;;;;2094459;28;20031;-66
2024/03/23 04:51:23;;;;;;;8.45;3.38;;;9.10;99.90;;;;;;2095175;28;20039;-66
2024/03/23 04:52:24;;;;;;;11.48;3.65;;;9.20;99.90;;;;;;2094379;28;20032;-65
2024/03/23 04:53:28;;;;;;;9.93;3.17;;;9.20;99.90;;;;;;2094016;28;20058;-65
2024/03/23 04:54:28;;;;;;;10.50;3.85;;;9.20;99.90;;;;;;2093390;28;20030;-65
2024/03/23 04:55:29;;;;;;;13.63;5.03;;;9.20;99.90;;;;;;2096143;28;20392;-66
2024/03/23 04:56:31;;;;;;;8.45;3.92;;;9.20;99.90;;;;;;2093469;28;20052;-65
2024/03/23 04:57:31;;;;;;;10.93;4.07;;;9.20;99.90;;;;;;2094261;28;20056;-66
2024/03/23 04:58:32;;;;;;;10.55;4.07;;;9.20;99.90;;;;;;2093266;28;20043;-66
2024/03/23 04:59:33;;;;;;;12.82;4.75;;;9.20;99.90;;;;;;2093239;28;20397;-65
2024/03/23 05:00:33;;;;;;;18.88;5.47;;;9.20;99.90;;;;;;2094169;28;20043;-66
2024/03/23 05:01:34;;;;;;;11.55;4.78;;;9.20;99.90;;;;;;2095768;28;20480;-66
2024/03/23 05:02:35;;;;;;;12.35;4.40;;;9.20;99.90;;;;;;2093479;28;20017;-65
2024/03/23 05:03:35;;;;;;;14.80;4.80;;;9.20;99.90;;;;;;2095348;28;20047;-65
2024/03/23 05:04:37;;;;;;;14.23;5.00;;;9.10;99.90;;;;;;2093267;28;20500;-65
2024/03/23 05:05:37;;;;;;;13.48;5.32;;;9.10;99.90;;;;;;2094702;28;20107;-66
2024/03/23 05:06:38;;;;;;;14.45;4.78;;;9.10;99.90;;;;;;2093129;28;20028;-66
2024/03/23 05:07:38;;;;;;;15.05;4.25;;;9.10;99.90;;;;;;2086513;28;20060;-66
2024/03/23 05:08:39;;;;;;;13.30;4.38;;;9.10;99.90;;;;;;2084901;28;20060;-66
2024/03/23 05:09:39;;;;;;;10.98;4.25;;;9.10;99.90;;;;;;2093017;28;20448;-65
2024/03/23 05:10:41;;;;;;;11.50;3.83;;;9.10;99.90;;;;;;2094938;28;20025;-66
2024/03/23 05:11:42;;;;;;;12.70;3.83;;;9.10;99.90;;;;;;2094933;28;20021;-65
2024/03/23 05:12:43;;;;;;;13.70;4.38;;;9.10;99.90;;;;;;2093744;28;20388;-66
2024/03/23 05:13:44;;;;;;;11.40;4.55;;;9.00;99.90;;;;;;2096282;28;20044;-65
2024/03/23 05:14:45;;;;;;;15.95;5.30;;;9.10;99.90;;;;;;2085318;28;20026;-65
2024/03/23 05:15:54;;;;;;;12.52;4.82;;;9.10;99.90;;;;;;2085903;28;20021;-65
2024/03/23 05:16:55;;;;;;;13.82;4.80;;;9.00;99.90;;;;;;2095320;28;20032;-65